sensor_id;sensor_type;location;lat;lon;timestamp;P1;durP1;ratioP1;P2;durP2;ratioP2
43519;SDS011;46848;51.980;5.918;2023-08-06T00:01:42;8.95;;;5.60;;
43519;SDS011;46848;51.980;5.918;2023-08-06T00:04:07;7.30;;;5.20;;
43519;SDS011;46848;51.980;5.918;2023-08-06T00:06:33;8.90;;;6.00;;
43519;SDS011;46848;51.980;5.918;2023-08-06T00:08:58;9.10;;;6.18;;
43519;SDS011;46848;51.980;5.918;2023-08-06T00:11:24;10.25;;;5.85;;
43519;SDS011;46848;51.980;5.918;2023-08-06T00:13:49;10.00;;;5.32;;
43519;SDS011;46848;51.980;5.918;2023-08-06T00:16:15;9.15;;;5.50;;
43519;SDS011;46848;51.980;5.918;2023-08-06T00:18:40;7.75;;;6.45;;
43519;SDS011;46848;51.980;5.918;2023-08-06T00:21:06;6.40;;;4.80;;
43519;SDS011;46848;51.980;5.918;2023-08-06T00:23:32;7.20;;;5.28;;
43519;SDS011;46848;51.980;5.918;2023-08-06T00:25:57;8.32;;;6.10;;
43519;SDS011;46848;51.980;5.918;2023-08-06T00:28:23;8.85;;;5.43;;
43519;SDS011;46848;51.980;5.918;2023-08-06T00:30:54;8.60;;;5.20;;
43519;SDS011;46848;51.980;5.918;2023-08-06T00:33:21;7.63;;;5.97;;
43519;SDS011;46848;51.980;5.918;2023-08-06T00:35:47;8.57;;;5.28;;
43519;SDS011;46848;51.980;5.918;2023-08-06T00:38:13;6.15;;;4.55;;
43519;SDS011;46848;51.980;5.918;2023-08-06T00:40:39;8.25;;;5.00;;
43519;SDS011;46848;51.980;5.918;2023-08-06T00:43:04;8.15;;;5.43;;
43519;SDS011;46848;51.980;5.918;2023-08-06T00:45:30;7.80;;;4.97;;
43519;SDS011;46848;51.980;5.918;2023-08-06T00:47:59;9.85;;;5.80;;
43519;SDS011;46848;51.980;5.918;2023-08-06T00:50:26;7.97;;;6.10;;
43519;SDS011;46848;51.980;5.918;2023-08-06T00:52:51;8.05;;;5.78;;
43519;SDS011;46848;51.980;5.918;2023-08-06T00:55:18;8.02;;;5.18;;
43519;SDS011;46848;51.980;5.918;2023-08-06T00:57:43;7.40;;;5.68;;
43519;SDS011;46848;51.980;5.918;2023-08-06T01:00:09;8.77;;;6.45;;
43519;SDS011;46848;51.980;5.918;2023-08-06T01:02:36;10.20;;;5.22;;
43519;SDS011;46848;51.980;5.918;2023-08-06T01:05:02;8.77;;;5.93;;
43519;SDS011;46848;51.980;5.918;2023-08-06T01:13:16;6.70;;;5.03;;
43519;SDS011;46848;51.980;5.918;2023-08-06T01:15:47;6.45;;;4.43;;
43519;SDS011;46848;51.980;5.918;2023-08-06T01:18:18;7.00;;;4.80;;
43519;SDS011;46848;51.980;5.918;2023-08-06T01:20:44;6.70;;;4.40;;
43519;SDS011;46848;51.980;5.918;2023-08-06T01:23:09;5.55;;;4.35;;
43519;SDS011;46848;51.980;5.918;2023-08-06T01:26:19;6.25;;;4.93;;
43519;SDS011;46848;51.980;5.918;2023-08-06T01:31:07;6.80;;;4.35;;
43519;SDS011;46848;51.980;5.918;2023-08-06T01:33:40;7.05;;;4.38;;
43519;SDS011;46848;51.980;5.918;2023-08-06T01:36:10;6.45;;;4.95;;
43519;SDS011;46848;51.980;5.918;2023-08-06T01:38:36;6.25;;;4.35;;
43519;SDS011;46848;51.980;5.918;2023-08-06T01:41:01;7.05;;;4.80;;
43519;SDS011;46848;51.980;5.918;2023-08-06T01:43:27;5.72;;;4.25;;
43519;SDS011;46848;51.980;5.918;2023-08-06T01:45:52;5.68;;;3.58;;
43519;SDS011;46848;51.980;5.918;2023-08-06T01:48:18;5.28;;;4.22;;
43519;SDS011;46848;51.980;5.918;2023-08-06T01:50:44;6.78;;;4.82;;
43519;SDS011;46848;51.980;5.918;2023-08-06T01:53:10;8.50;;;5.80;;
43519;SDS011;46848;51.980;5.918;2023-08-06T01:55:36;8.60;;;6.47;;
43519;SDS011;46848;51.980;5.918;2023-08-06T01:58:01;7.10;;;5.45;;
43519;SDS011;46848;51.980;5.918;2023-08-06T02:00:27;8.50;;;6.13;;
43519;SDS011;46848;51.980;5.918;2023-08-06T02:02:53;9.35;;;6.63;;
43519;SDS011;46848;51.980;5.918;2023-08-06T02:05:19;8.23;;;5.78;;
43519;SDS011;46848;51.980;5.918;2023-08-06T02:07:45;9.95;;;6.72;;
43519;SDS011;46848;51.980;5.918;2023-08-06T02:10:10;8.77;;;6.97;;
43519;SDS011;46848;51.980;5.918;2023-08-06T02:12:36;10.52;;;7.60;;
43519;SDS011;46848;51.980;5.918;2023-08-06T02:15:01;9.38;;;7.30;;
43519;SDS011;46848;51.980;5.918;2023-08-06T02:17:27;10.48;;;7.75;;
43519;SDS011;46848;51.980;5.918;2023-08-06T02:19:53;9.82;;;7.60;;
43519;SDS011;46848;51.980;5.918;2023-08-06T02:22:18;10.98;;;8.75;;
43519;SDS011;46848;51.980;5.918;2023-08-06T02:24:44;11.57;;;9.20;;
43519;SDS011;46848;51.980;5.918;2023-08-06T02:27:10;11.10;;;8.45;;
43519;SDS011;46848;51.980;5.918;2023-08-06T02:29:35;10.95;;;8.40;;
43519;SDS011;46848;51.980;5.918;2023-08-06T02:32:01;9.52;;;7.53;;
43519;SDS011;46848;51.980;5.918;2023-08-06T02:34:27;10.25;;;8.68;;
43519;SDS011;46848;51.980;5.918;2023-08-06T02:36:53;9.27;;;8.05;;
43519;SDS011;46848;51.980;5.918;2023-08-06T02:39:18;10.05;;;8.02;;
43519;SDS011;46848;51.980;5.918;2023-08-06T02:41:44;9.38;;;7.00;;
43519;SDS011;46848;51.980;5.918;2023-08-06T02:44:10;8.98;;;6.72;;
43519;SDS011;46848;51.980;5.918;2023-08-06T02:46:35;9.48;;;6.68;;
43519;SDS011;46848;51.980;5.918;2023-08-06T02:49:01;9.60;;;6.82;;
43519;SDS011;46848;51.980;5.918;2023-08-06T02:51:26;8.25;;;7.15;;
43519;SDS011;46848;51.980;5.918;2023-08-06T02:53:52;9.13;;;6.90;;
43519;SDS011;46848;51.980;5.918;2023-08-06T02:56:17;8.07;;;6.57;;
43519;SDS011;46848;51.980;5.918;2023-08-06T02:58:43;9.25;;;6.43;;
43519;SDS011;46848;51.980;5.918;2023-08-06T03:01:09;9.88;;;6.20;;
43519;SDS011;46848;51.980;5.918;2023-08-06T03:03:34;7.53;;;6.00;;
43519;SDS011;46848;51.980;5.918;2023-08-06T03:06:00;6.43;;;5.03;;
43519;SDS011;46848;51.980;5.918;2023-08-06T03:08:26;6.38;;;5.30;;
43519;SDS011;46848;51.980;5.918;2023-08-06T03:10:52;6.80;;;4.97;;
43519;SDS011;46848;51.980;5.918;2023-08-06T03:13:17;6.63;;;4.97;;
43519;SDS011;46848;51.980;5.918;2023-08-06T03:15:51;7.15;;;5.80;;
43519;SDS011;46848;51.980;5.918;2023-08-06T03:18:18;7.82;;;4.80;;
43519;SDS011;46848;51.980;5.918;2023-08-06T03:20:44;7.72;;;5.32;;
43519;SDS011;46848;51.980;5.918;2023-08-06T03:23:10;6.13;;;4.93;;
43519;SDS011;46848;51.980;5.918;2023-08-06T03:25:35;8.32;;;5.97;;
43519;SDS011;46848;51.980;5.918;2023-08-06T03:28:02;6.80;;;5.10;;
43519;SDS011;46848;51.980;5.918;2023-08-06T03:30:27;7.13;;;5.50;;
43519;SDS011;46848;51.980;5.918;2023-08-06T03:32:53;8.90;;;5.18;;
43519;SDS011;46848;51.980;5.918;2023-08-06T03:35:19;8.23;;;5.18;;
43519;SDS011;46848;51.980;5.918;2023-08-06T03:37:44;6.30;;;4.57;;
43519;SDS011;46848;51.980;5.918;2023-08-06T03:40:10;7.05;;;5.10;;
43519;SDS011;46848;51.980;5.918;2023-08-06T03:42:36;7.45;;;5.75;;
43519;SDS011;46848;51.980;5.918;2023-08-06T03:45:01;8.05;;;5.65;;
43519;SDS011;46848;51.980;5.918;2023-08-06T03:47:28;6.03;;;4.85;;
43519;SDS011;46848;51.980;5.918;2023-08-06T03:49:53;6.25;;;4.53;;
43519;SDS011;46848;51.980;5.918;2023-08-06T03:52:19;7.10;;;4.65;;
43519;SDS011;46848;51.980;5.918;2023-08-06T03:54:44;6.25;;;4.95;;
43519;SDS011;46848;51.980;5.918;2023-08-06T03:57:10;7.05;;;4.90;;
43519;SDS011;46848;51.980;5.918;2023-08-06T03:59:36;5.68;;;4.43;;
43519;SDS011;46848;51.980;5.918;2023-08-06T04:02:01;6.13;;;4.40;;
43519;SDS011;46848;51.980;5.918;2023-08-06T04:04:27;5.97;;;4.50;;
43519;SDS011;46848;51.980;5.918;2023-08-06T04:06:52;7.05;;;4.63;;
43519;SDS011;46848;51.980;5.918;2023-08-06T04:09:18;7.25;;;4.88;;
43519;SDS011;46848;51.980;5.918;2023-08-06T04:11:44;6.22;;;4.70;;
43519;SDS011;46848;51.980;5.918;2023-08-06T04:14:09;5.88;;;4.35;;
43519;SDS011;46848;51.980;5.918;2023-08-06T04:16:35;6.63;;;4.97;;
43519;SDS011;46848;51.980;5.918;2023-08-06T04:19:01;7.15;;;5.05;;
43519;SDS011;46848;51.980;5.918;2023-08-06T04:21:26;9.65;;;4.80;;
43519;SDS011;46848;51.980;5.918;2023-08-06T04:23:52;8.80;;;5.25;;
43519;SDS011;46848;51.980;5.918;2023-08-06T04:26:17;7.93;;;5.57;;
43519;SDS011;46848;51.980;5.918;2023-08-06T04:28:43;8.23;;;6.10;;
43519;SDS011;46848;51.980;5.918;2023-08-06T04:31:09;5.80;;;5.00;;
43519;SDS011;46848;51.980;5.918;2023-08-06T04:33:34;9.43;;;6.30;;
43519;SDS011;46848;51.980;5.918;2023-08-06T04:36:00;8.45;;;6.25;;
43519;SDS011;46848;51.980;5.918;2023-08-06T04:38:26;9.10;;;5.88;;
43519;SDS011;46848;51.980;5.918;2023-08-06T04:40:52;7.60;;;5.90;;
43519;SDS011;46848;51.980;5.918;2023-08-06T04:43:18;9.30;;;6.18;;
43519;SDS011;46848;51.980;5.918;2023-08-06T04:45:50;7.80;;;5.35;;
43519;SDS011;46848;51.980;5.918;2023-08-06T04:48:16;8.68;;;6.13;;
43519;SDS011;46848;51.980;5.918;2023-08-06T04:50:43;7.18;;;5.43;;
43519;SDS011;46848;51.980;5.918;2023-08-06T04:53:10;7.70;;;5.50;;
43519;SDS011;46848;51.980;5.918;2023-08-06T04:55:35;7.70;;;5.68;;
43519;SDS011;46848;51.980;5.918;2023-08-06T04:58:01;8.82;;;5.93;;
43519;SDS011;46848;51.980;5.918;2023-08-06T05:00:26;8.15;;;5.95;;
43519;SDS011;46848;51.980;5.918;2023-08-06T05:02:52;7.57;;;6.10;;
43519;SDS011;46848;51.980;5.918;2023-08-06T05:05:18;8.98;;;6.80;;
43519;SDS011;46848;51.980;5.918;2023-08-06T05:07:45;9.00;;;7.15;;
43519;SDS011;46848;51.980;5.918;2023-08-06T05:10:14;8.45;;;6.78;;
43519;SDS011;46848;51.980;5.918;2023-08-06T05:12:40;8.00;;;6.32;;
43519;SDS011;46848;51.980;5.918;2023-08-06T05:15:06;7.63;;;6.22;;
43519;SDS011;46848;51.980;5.918;2023-08-06T05:17:32;10.25;;;6.70;;
43519;SDS011;46848;51.980;5.918;2023-08-06T05:19:58;11.00;;;6.97;;
43519;SDS011;46848;51.980;5.918;2023-08-06T05:22:24;9.63;;;6.28;;
43519;SDS011;46848;51.980;5.918;2023-08-06T05:24:50;8.38;;;6.43;;
43519;SDS011;46848;51.980;5.918;2023-08-06T05:27:16;9.63;;;6.43;;
43519;SDS011;46848;51.980;5.918;2023-08-06T05:29:43;7.22;;;5.97;;
43519;SDS011;46848;51.980;5.918;2023-08-06T05:32:09;11.38;;;7.07;;
43519;SDS011;46848;51.980;5.918;2023-08-06T05:34:35;7.68;;;6.70;;
43519;SDS011;46848;51.980;5.918;2023-08-06T05:37:01;9.20;;;6.75;;
43519;SDS011;46848;51.980;5.918;2023-08-06T05:39:27;8.88;;;7.22;;
43519;SDS011;46848;51.980;5.918;2023-08-06T05:41:53;9.57;;;7.82;;
43519;SDS011;46848;51.980;5.918;2023-08-06T05:44:20;10.95;;;8.30;;
43519;SDS011;46848;51.980;5.918;2023-08-06T05:46:46;11.40;;;8.50;;
43519;SDS011;46848;51.980;5.918;2023-08-06T05:49:11;9.32;;;8.18;;
43519;SDS011;46848;51.980;5.918;2023-08-06T05:51:38;9.43;;;8.18;;
43519;SDS011;46848;51.980;5.918;2023-08-06T05:54:04;10.98;;;8.75;;
43519;SDS011;46848;51.980;5.918;2023-08-06T05:56:30;10.98;;;9.15;;
43519;SDS011;46848;51.980;5.918;2023-08-06T05:58:55;9.25;;;7.95;;
43519;SDS011;46848;51.980;5.918;2023-08-06T06:01:21;11.93;;;9.43;;
43519;SDS011;46848;51.980;5.918;2023-08-06T06:03:47;10.00;;;8.77;;
43519;SDS011;46848;51.980;5.918;2023-08-06T06:06:12;11.63;;;9.25;;
43519;SDS011;46848;51.980;5.918;2023-08-06T06:08:38;13.30;;;9.88;;
43519;SDS011;46848;51.980;5.918;2023-08-06T06:11:03;14.50;;;10.95;;
43519;SDS011;46848;51.980;5.918;2023-08-06T06:13:29;12.27;;;10.00;;
43519;SDS011;46848;51.980;5.918;2023-08-06T06:15:54;12.30;;;10.23;;
43519;SDS011;46848;51.980;5.918;2023-08-06T06:18:21;11.77;;;10.30;;
43519;SDS011;46848;51.980;5.918;2023-08-06T06:20:47;13.70;;;11.63;;
43519;SDS011;46848;51.980;5.918;2023-08-06T06:23:12;13.45;;;9.85;;
43519;SDS011;46848;51.980;5.918;2023-08-06T06:25:42;13.25;;;10.30;;
43519;SDS011;46848;51.980;5.918;2023-08-06T06:28:14;11.30;;;10.07;;
43519;SDS011;46848;51.980;5.918;2023-08-06T06:30:40;11.77;;;9.98;;
43519;SDS011;46848;51.980;5.918;2023-08-06T06:33:07;12.20;;;10.25;;
43519;SDS011;46848;51.980;5.918;2023-08-06T06:35:33;12.73;;;10.27;;
43519;SDS011;46848;51.980;5.918;2023-08-06T06:37:58;12.20;;;9.88;;
43519;SDS011;46848;51.980;5.918;2023-08-06T06:40:25;13.13;;;9.75;;
43519;SDS011;46848;51.980;5.918;2023-08-06T06:42:50;11.90;;;10.60;;
43519;SDS011;46848;51.980;5.918;2023-08-06T06:45:16;10.68;;;9.30;;
43519;SDS011;46848;51.980;5.918;2023-08-06T06:47:42;11.75;;;10.00;;
43519;SDS011;46848;51.980;5.918;2023-08-06T06:50:07;11.95;;;9.50;;
43519;SDS011;46848;51.980;5.918;2023-08-06T06:52:33;10.43;;;9.32;;
43519;SDS011;46848;51.980;5.918;2023-08-06T06:54:59;11.68;;;10.23;;
43519;SDS011;46848;51.980;5.918;2023-08-06T06:57:24;11.45;;;9.88;;
43519;SDS011;46848;51.980;5.918;2023-08-06T06:59:50;13.07;;;9.98;;
43519;SDS011;46848;51.980;5.918;2023-08-06T07:02:15;11.60;;;9.23;;
43519;SDS011;46848;51.980;5.918;2023-08-06T07:04:41;10.57;;;8.95;;
43519;SDS011;46848;51.980;5.918;2023-08-06T07:07:07;12.32;;;9.68;;
43519;SDS011;46848;51.980;5.918;2023-08-06T07:09:32;12.23;;;9.40;;
43519;SDS011;46848;51.980;5.918;2023-08-06T07:11:58;11.95;;;8.63;;
43519;SDS011;46848;51.980;5.918;2023-08-06T07:14:26;10.52;;;8.95;;
43519;SDS011;46848;51.980;5.918;2023-08-06T07:16:53;10.45;;;8.43;;
43519;SDS011;46848;51.980;5.918;2023-08-06T07:19:19;10.02;;;8.48;;
43519;SDS011;46848;51.980;5.918;2023-08-06T07:21:45;9.77;;;8.70;;
43519;SDS011;46848;51.980;5.918;2023-08-06T07:24:11;9.43;;;8.00;;
43519;SDS011;46848;51.980;5.918;2023-08-06T07:26:36;11.35;;;8.35;;
43519;SDS011;46848;51.980;5.918;2023-08-06T07:29:02;11.80;;;9.13;;
43519;SDS011;46848;51.980;5.918;2023-08-06T07:31:28;10.93;;;9.07;;
43519;SDS011;46848;51.980;5.918;2023-08-06T07:33:54;11.57;;;8.20;;
43519;SDS011;46848;51.980;5.918;2023-08-06T07:36:19;11.98;;;9.35;;
43519;SDS011;46848;51.980;5.918;2023-08-06T07:38:45;10.10;;;8.00;;
43519;SDS011;46848;51.980;5.918;2023-08-06T07:41:10;10.32;;;7.82;;
43519;SDS011;46848;51.980;5.918;2023-08-06T07:43:36;8.82;;;7.90;;
43519;SDS011;46848;51.980;5.918;2023-08-06T07:46:02;8.88;;;7.97;;
43519;SDS011;46848;51.980;5.918;2023-08-06T07:48:28;8.68;;;7.85;;
43519;SDS011;46848;51.980;5.918;2023-08-06T07:50:54;8.93;;;8.02;;
43519;SDS011;46848;51.980;5.918;2023-08-06T07:53:26;9.23;;;8.13;;
43519;SDS011;46848;51.980;5.918;2023-08-06T07:56:10;8.10;;;7.28;;
43519;SDS011;46848;51.980;5.918;2023-08-06T07:58:35;7.47;;;6.68;;
43519;SDS011;46848;51.980;5.918;2023-08-06T08:01:01;7.70;;;6.90;;
43519;SDS011;46848;51.980;5.918;2023-08-06T08:03:26;8.68;;;6.47;;
43519;SDS011;46848;51.980;5.918;2023-08-06T08:05:54;8.35;;;6.95;;
43519;SDS011;46848;51.980;5.918;2023-08-06T08:08:23;7.93;;;7.10;;
43519;SDS011;46848;51.980;5.918;2023-08-06T08:10:49;8.43;;;6.15;;
43519;SDS011;46848;51.980;5.918;2023-08-06T08:13:14;7.15;;;6.45;;
43519;SDS011;46848;51.980;5.918;2023-08-06T08:15:40;8.00;;;7.20;;
43519;SDS011;46848;51.980;5.918;2023-08-06T08:18:05;7.65;;;6.50;;
43519;SDS011;46848;51.980;5.918;2023-08-06T08:20:31;7.35;;;6.38;;
43519;SDS011;46848;51.980;5.918;2023-08-06T08:23:01;8.90;;;6.40;;
43519;SDS011;46848;51.980;5.918;2023-08-06T08:25:27;8.50;;;6.90;;
43519;SDS011;46848;51.980;5.918;2023-08-06T08:27:56;7.32;;;6.50;;
43519;SDS011;46848;51.980;5.918;2023-08-06T08:30:22;7.85;;;6.28;;
43519;SDS011;46848;51.980;5.918;2023-08-06T08:32:49;7.63;;;6.38;;
43519;SDS011;46848;51.980;5.918;2023-08-06T08:35:15;6.68;;;6.07;;
43519;SDS011;46848;51.980;5.918;2023-08-06T08:37:41;9.02;;;6.63;;
43519;SDS011;46848;51.980;5.918;2023-08-06T08:40:08;8.80;;;6.45;;
43519;SDS011;46848;51.980;5.918;2023-08-06T08:42:34;8.57;;;7.68;;
43519;SDS011;46848;51.980;5.918;2023-08-06T08:45:01;6.75;;;6.05;;
43519;SDS011;46848;51.980;5.918;2023-08-06T08:47:29;9.02;;;6.82;;
43519;SDS011;46848;51.980;5.918;2023-08-06T08:49:55;11.43;;;7.15;;
43519;SDS011;46848;51.980;5.918;2023-08-06T08:52:22;8.60;;;6.93;;
43519;SDS011;46848;51.980;5.918;2023-08-06T08:54:50;7.22;;;5.85;;
43519;SDS011;46848;51.980;5.918;2023-08-06T08:57:17;7.35;;;6.28;;
43519;SDS011;46848;51.980;5.918;2023-08-06T08:59:43;8.70;;;7.25;;
43519;SDS011;46848;51.980;5.918;2023-08-06T09:02:10;7.60;;;5.82;;
43519;SDS011;46848;51.980;5.918;2023-08-06T09:04:37;7.15;;;6.20;;
43519;SDS011;46848;51.980;5.918;2023-08-06T09:07:05;6.65;;;5.93;;
43519;SDS011;46848;51.980;5.918;2023-08-06T09:09:33;8.07;;;6.43;;
43519;SDS011;46848;51.980;5.918;2023-08-06T09:12:06;6.68;;;5.97;;
43519;SDS011;46848;51.980;5.918;2023-08-06T09:14:42;6.57;;;5.82;;
43519;SDS011;46848;51.980;5.918;2023-08-06T09:17:09;6.88;;;5.93;;
43519;SDS011;46848;51.980;5.918;2023-08-06T09:19:39;7.10;;;5.32;;
43519;SDS011;46848;51.980;5.918;2023-08-06T09:22:11;7.00;;;5.22;;
43519;SDS011;46848;51.980;5.918;2023-08-06T09:24:39;6.78;;;5.65;;
43519;SDS011;46848;51.980;5.918;2023-08-06T09:27:14;7.78;;;5.50;;
43519;SDS011;46848;51.980;5.918;2023-08-06T09:29:40;7.38;;;5.65;;
43519;SDS011;46848;51.980;5.918;2023-08-06T09:32:07;7.47;;;5.50;;
43519;SDS011;46848;51.980;5.918;2023-08-06T09:34:32;7.68;;;5.25;;
43519;SDS011;46848;51.980;5.918;2023-08-06T09:36:58;6.95;;;5.30;;
43519;SDS011;46848;51.980;5.918;2023-08-06T09:39:27;6.32;;;4.78;;
43519;SDS011;46848;51.980;5.918;2023-08-06T09:41:58;6.20;;;4.90;;
43519;SDS011;46848;51.980;5.918;2023-08-06T09:44:26;7.20;;;5.35;;
43519;SDS011;46848;51.980;5.918;2023-08-06T09:46:54;6.30;;;4.85;;
43519;SDS011;46848;51.980;5.918;2023-08-06T09:51:58;6.03;;;4.90;;
43519;SDS011;46848;51.980;5.918;2023-08-06T09:54:28;7.53;;;4.95;;
43519;SDS011;46848;51.980;5.918;2023-08-06T09:56:55;6.20;;;4.88;;
43519;SDS011;46848;51.980;5.918;2023-08-06T09:59:22;5.68;;;4.65;;
43519;SDS011;46848;51.980;5.918;2023-08-06T10:01:48;6.13;;;4.10;;
43519;SDS011;46848;51.980;5.918;2023-08-06T10:04:14;6.57;;;4.93;;
43519;SDS011;46848;51.980;5.918;2023-08-06T10:06:43;8.48;;;4.70;;
43519;SDS011;46848;51.980;5.918;2023-08-06T10:09:12;5.90;;;4.65;;
43519;SDS011;46848;51.980;5.918;2023-08-06T10:11:38;7.07;;;5.18;;
43519;SDS011;46848;51.980;5.918;2023-08-06T10:14:11;8.55;;;5.10;;
43519;SDS011;46848;51.980;5.918;2023-08-06T10:16:41;6.43;;;4.60;;
43519;SDS011;46848;51.980;5.918;2023-08-06T10:19:09;5.97;;;5.32;;
43519;SDS011;46848;51.980;5.918;2023-08-06T10:21:39;7.85;;;5.90;;
43519;SDS011;46848;51.980;5.918;2023-08-06T10:24:08;7.38;;;6.13;;
43519;SDS011;46848;51.980;5.918;2023-08-06T10:26:36;8.40;;;6.22;;
43519;SDS011;46848;51.980;5.918;2023-08-06T10:29:34;9.88;;;7.03;;
43519;SDS011;46848;51.980;5.918;2023-08-06T10:32:01;9.23;;;7.00;;
43519;SDS011;46848;51.980;5.918;2023-08-06T10:37:23;6.65;;;4.72;;
43519;SDS011;46848;51.980;5.918;2023-08-06T10:39:59;4.50;;;3.55;;
43519;SDS011;46848;51.980;5.918;2023-08-06T10:42:28;3.60;;;2.60;;
43519;SDS011;46848;51.980;5.918;2023-08-06T10:47:45;2.97;;;1.88;;
43519;SDS011;46848;51.980;5.918;2023-08-06T10:50:15;2.47;;;1.48;;
43519;SDS011;46848;51.980;5.918;2023-08-06T10:52:45;3.05;;;1.60;;
43519;SDS011;46848;51.980;5.918;2023-08-06T10:55:12;1.85;;;1.05;;
43519;SDS011;46848;51.980;5.918;2023-08-06T10:57:38;3.45;;;1.42;;
43519;SDS011;46848;51.980;5.918;2023-08-06T11:00:04;2.30;;;1.23;;
43519;SDS011;46848;51.980;5.918;2023-08-06T11:02:34;1.90;;;1.10;;
43519;SDS011;46848;51.980;5.918;2023-08-06T11:05:10;2.50;;;1.10;;
43519;SDS011;46848;51.980;5.918;2023-08-06T11:07:36;2.88;;;1.02;;
43519;SDS011;46848;51.980;5.918;2023-08-06T11:10:03;1.38;;;0.70;;
43519;SDS011;46848;51.980;5.918;2023-08-06T11:12:30;1.83;;;1.05;;
43519;SDS011;46848;51.980;5.918;2023-08-06T11:14:56;3.42;;;1.10;;
43519;SDS011;46848;51.980;5.918;2023-08-06T11:17:22;1.20;;;0.73;;
43519;SDS011;46848;51.980;5.918;2023-08-06T11:19:48;2.15;;;0.82;;
43519;SDS011;46848;51.980;5.918;2023-08-06T11:22:14;1.52;;;0.70;;
43519;SDS011;46848;51.980;5.918;2023-08-06T11:24:40;1.60;;;0.90;;
43519;SDS011;46848;51.980;5.918;2023-08-06T11:27:12;1.77;;;0.73;;
43519;SDS011;46848;51.980;5.918;2023-08-06T11:29:39;1.20;;;0.63;;
43519;SDS011;46848;51.980;5.918;2023-08-06T11:32:05;1.83;;;0.75;;
43519;SDS011;46848;51.980;5.918;2023-08-06T11:34:31;1.17;;;0.70;;
43519;SDS011;46848;51.980;5.918;2023-08-06T11:36:57;1.63;;;1.00;;
43519;SDS011;46848;51.980;5.918;2023-08-06T11:39:23;1.60;;;1.00;;
43519;SDS011;46848;51.980;5.918;2023-08-06T11:41:49;2.20;;;1.00;;
43519;SDS011;46848;51.980;5.918;2023-08-06T11:44:18;2.65;;;1.40;;
43519;SDS011;46848;51.980;5.918;2023-08-06T11:46:53;2.22;;;1.38;;
43519;SDS011;46848;51.980;5.918;2023-08-06T11:52:31;2.35;;;1.40;;
43519;SDS011;46848;51.980;5.918;2023-08-06T11:57:37;2.17;;;1.17;;
43519;SDS011;46848;51.980;5.918;2023-08-06T12:00:09;3.92;;;1.20;;
43519;SDS011;46848;51.980;5.918;2023-08-06T12:02:36;3.80;;;1.20;;
43519;SDS011;46848;51.980;5.918;2023-08-06T12:05:13;1.90;;;1.30;;
43519;SDS011;46848;51.980;5.918;2023-08-06T12:07:41;2.10;;;1.30;;
43519;SDS011;46848;51.980;5.918;2023-08-06T12:10:08;2.47;;;1.48;;
43519;SDS011;46848;51.980;5.918;2023-08-06T12:12:34;3.22;;;1.35;;
43519;SDS011;46848;51.980;5.918;2023-08-06T12:15:00;1.88;;;1.23;;
43519;SDS011;46848;51.980;5.918;2023-08-06T12:17:27;3.00;;;1.30;;
43519;SDS011;46848;51.980;5.918;2023-08-06T12:19:52;2.47;;;1.25;;
43519;SDS011;46848;51.980;5.918;2023-08-06T12:22:18;2.50;;;1.48;;
43519;SDS011;46848;51.980;5.918;2023-08-06T12:24:46;4.75;;;1.80;;
43519;SDS011;46848;51.980;5.918;2023-08-06T12:27:12;3.25;;;1.58;;
43519;SDS011;46848;51.980;5.918;2023-08-06T12:29:42;3.08;;;1.65;;
43519;SDS011;46848;51.980;5.918;2023-08-06T12:32:11;3.92;;;1.63;;
43519;SDS011;46848;51.980;5.918;2023-08-06T12:35:57;3.47;;;1.95;;
43519;SDS011;46848;51.980;5.918;2023-08-06T12:38:23;2.80;;;1.50;;
43519;SDS011;46848;51.980;5.918;2023-08-06T12:40:49;3.20;;;1.60;;
43519;SDS011;46848;51.980;5.918;2023-08-06T12:43:14;3.78;;;2.13;;
43519;SDS011;46848;51.980;5.918;2023-08-06T12:45:40;4.00;;;1.92;;
43519;SDS011;46848;51.980;5.918;2023-08-06T12:48:05;5.53;;;2.20;;
43519;SDS011;46848;51.980;5.918;2023-08-06T12:50:31;4.65;;;2.25;;
43519;SDS011;46848;51.980;5.918;2023-08-06T12:52:57;2.70;;;1.55;;
43519;SDS011;46848;51.980;5.918;2023-08-06T12:55:23;3.50;;;1.90;;
43519;SDS011;46848;51.980;5.918;2023-08-06T12:57:48;4.50;;;2.13;;
43519;SDS011;46848;51.980;5.918;2023-08-06T13:00:14;4.15;;;1.98;;
43519;SDS011;46848;51.980;5.918;2023-08-06T13:02:40;2.97;;;1.80;;
43519;SDS011;46848;51.980;5.918;2023-08-06T13:05:05;3.17;;;1.55;;
43519;SDS011;46848;51.980;5.918;2023-08-06T13:07:32;4.10;;;1.85;;
43519;SDS011;46848;51.980;5.918;2023-08-06T13:09:57;3.50;;;1.70;;
43519;SDS011;46848;51.980;5.918;2023-08-06T13:12:23;3.20;;;1.75;;
43519;SDS011;46848;51.980;5.918;2023-08-06T13:14:48;3.35;;;1.70;;
43519;SDS011;46848;51.980;5.918;2023-08-06T13:17:14;4.13;;;1.90;;
43519;SDS011;46848;51.980;5.918;2023-08-06T13:19:40;2.92;;;1.60;;
43519;SDS011;46848;51.980;5.918;2023-08-06T13:22:05;4.05;;;2.03;;
43519;SDS011;46848;51.980;5.918;2023-08-06T13:24:33;3.53;;;1.70;;
43519;SDS011;46848;51.980;5.918;2023-08-06T13:26:59;2.55;;;1.30;;
43519;SDS011;46848;51.980;5.918;2023-08-06T13:29:26;2.28;;;1.33;;
43519;SDS011;46848;51.980;5.918;2023-08-06T13:31:52;4.93;;;1.67;;
43519;SDS011;46848;51.980;5.918;2023-08-06T13:34:18;3.30;;;1.40;;
43519;SDS011;46848;51.980;5.918;2023-08-06T13:36:44;3.92;;;1.75;;
43519;SDS011;46848;51.980;5.918;2023-08-06T13:39:10;2.60;;;1.20;;
43519;SDS011;46848;51.980;5.918;2023-08-06T13:41:36;4.25;;;2.33;;
43519;SDS011;46848;51.980;5.918;2023-08-06T13:44:03;2.97;;;1.55;;
43519;SDS011;46848;51.980;5.918;2023-08-06T13:46:29;3.53;;;1.88;;
43519;SDS011;46848;51.980;5.918;2023-08-06T13:48:54;3.58;;;1.80;;
43519;SDS011;46848;51.980;5.918;2023-08-06T13:51:20;2.90;;;1.73;;
43519;SDS011;46848;51.980;5.918;2023-08-06T13:53:45;5.03;;;2.05;;
43519;SDS011;46848;51.980;5.918;2023-08-06T13:56:11;3.72;;;1.70;;
43519;SDS011;46848;51.980;5.918;2023-08-06T13:58:37;5.05;;;1.90;;
43519;SDS011;46848;51.980;5.918;2023-08-06T14:01:03;3.53;;;1.80;;
43519;SDS011;46848;51.980;5.918;2023-08-06T14:03:29;3.65;;;1.60;;
43519;SDS011;46848;51.980;5.918;2023-08-06T14:05:54;3.95;;;1.77;;
43519;SDS011;46848;51.980;5.918;2023-08-06T14:08:21;4.25;;;1.60;;
43519;SDS011;46848;51.980;5.918;2023-08-06T14:10:48;2.10;;;1.30;;
43519;SDS011;46848;51.980;5.918;2023-08-06T14:13:14;2.97;;;1.40;;
43519;SDS011;46848;51.980;5.918;2023-08-06T14:15:39;2.78;;;1.33;;
43519;SDS011;46848;51.980;5.918;2023-08-06T14:18:05;3.03;;;1.52;;
43519;SDS011;46848;51.980;5.918;2023-08-06T14:20:33;3.00;;;1.75;;
43519;SDS011;46848;51.980;5.918;2023-08-06T14:22:59;3.58;;;1.67;;
43519;SDS011;46848;51.980;5.918;2023-08-06T14:25:25;3.10;;;1.73;;
43519;SDS011;46848;51.980;5.918;2023-08-06T14:27:50;3.72;;;1.90;;
43519;SDS011;46848;51.980;5.918;2023-08-06T14:30:16;3.28;;;1.70;;
43519;SDS011;46848;51.980;5.918;2023-08-06T14:32:41;2.63;;;1.50;;
43519;SDS011;46848;51.980;5.918;2023-08-06T14:35:07;3.85;;;1.75;;
43519;SDS011;46848;51.980;5.918;2023-08-06T14:37:33;3.15;;;1.85;;
43519;SDS011;46848;51.980;5.918;2023-08-06T14:39:58;3.72;;;1.90;;
43519;SDS011;46848;51.980;5.918;2023-08-06T14:42:24;3.03;;;1.88;;
43519;SDS011;46848;51.980;5.918;2023-08-06T14:44:49;4.32;;;2.03;;
43519;SDS011;46848;51.980;5.918;2023-08-06T14:47:15;4.72;;;1.95;;
43519;SDS011;46848;51.980;5.918;2023-08-06T14:49:41;4.00;;;1.88;;
43519;SDS011;46848;51.980;5.918;2023-08-06T14:52:07;3.65;;;1.70;;
43519;SDS011;46848;51.980;5.918;2023-08-06T14:54:32;5.68;;;2.40;;
43519;SDS011;46848;51.980;5.918;2023-08-06T14:56:58;4.63;;;2.03;;
43519;SDS011;46848;51.980;5.918;2023-08-06T14:59:23;3.58;;;1.98;;
43519;SDS011;46848;51.980;5.918;2023-08-06T15:01:49;4.60;;;2.05;;
43519;SDS011;46848;51.980;5.918;2023-08-06T15:04:16;4.15;;;1.88;;
43519;SDS011;46848;51.980;5.918;2023-08-06T15:06:43;4.75;;;2.30;;